createdAt,value
2018-05-11T00:01:17.239Z,1.63
2018-05-11T00:03:44.133Z,3.67
2018-05-11T00:06:11.016Z,2.67
2018-05-11T00:08:37.930Z,4.60
2018-05-11T00:11:05.356Z,2.97
2018-05-11T00:13:32.992Z,4.43
2018-05-11T00:15:59.864Z,2.37
2018-05-11T00:18:26.725Z,2.23
2018-05-11T00:20:54.148Z,1.93
2018-05-11T00:23:22.670Z,2.30
2018-05-11T00:25:49.649Z,3.17
2018-05-11T00:28:19.280Z,2.20
2018-05-11T00:30:46.162Z,4.63
2018-05-11T00:33:13.068Z,5.83
2018-05-11T00:35:40.625Z,3.37
2018-05-11T00:38:07.501Z,3.70
2018-05-11T00:40:34.392Z,5.03
2018-05-11T00:43:02.557Z,2.87
2018-05-11T00:45:29.448Z,3.50
2018-05-11T00:47:56.980Z,4.00
2018-05-11T00:50:24.763Z,3.80
2018-05-11T00:52:52.395Z,5.33
2018-05-11T00:55:32.701Z,5.97
2018-05-11T00:58:00.066Z,2.37
2018-05-11T01:00:26.943Z,4.87
2018-05-11T01:02:53.829Z,3.43
2018-05-11T01:05:21.449Z,3.03
2018-05-11T01:07:48.338Z,2.30
2018-05-11T01:10:16.448Z,2.73
2018-05-11T01:12:43.341Z,5.33
2018-05-11T01:15:10.953Z,5.23
2018-05-11T01:17:37.861Z,2.73
2018-05-11T01:20:06.001Z,3.03
2018-05-11T01:22:33.960Z,1.87
2018-05-11T01:25:00.908Z,1.80
2018-05-11T01:27:27.784Z,2.47
2018-05-11T01:29:54.697Z,2.73
2018-05-11T01:32:23.021Z,3.23
2018-05-11T01:34:50.424Z,1.53
2018-05-11T01:37:17.336Z,4.40
2018-05-11T01:39:44.248Z,2.13
2018-05-11T01:42:11.133Z,2.70
2018-05-11T01:44:38.801Z,3.20
2018-05-11T01:47:07.109Z,4.53
2018-05-11T01:49:34.038Z,3.73
2018-05-11T01:52:00.972Z,2.93
2018-05-11T01:54:27.868Z,2.10
2018-05-11T01:56:55.985Z,2.77
2018-05-11T01:59:23.665Z,2.30
2018-05-11T02:01:52.165Z,4.57
2018-05-11T02:04:19.045Z,2.30
2018-05-11T02:06:45.945Z,3.70
2018-05-11T02:09:13.235Z,3.87
2018-05-11T02:11:44.423Z,2.23
2018-05-11T02:14:11.296Z,2.17
2018-05-11T02:16:38.928Z,2.17
2018-05-11T02:19:05.829Z,2.03
2018-05-11T02:21:32.725Z,4.40
2018-05-11T02:24:00.257Z,3.50
2018-05-11T02:26:27.145Z,2.40
2018-05-11T02:28:54.029Z,2.97
2018-05-11T02:31:22.106Z,3.57
2018-05-11T02:33:48.997Z,3.70
2018-05-11T02:36:16.152Z,2.40
2018-05-11T02:38:45.237Z,3.07
2018-05-11T02:41:12.202Z,5.07
2018-05-11T02:43:39.076Z,1.93
2018-05-11T02:46:06.740Z,3.83
2018-05-11T02:48:33.669Z,2.57
2018-05-11T02:51:00.635Z,2.40
2018-05-11T02:53:28.238Z,3.57
2018-05-11T02:55:55.117Z,2.33
2018-05-11T02:58:22.045Z,2.20
2018-05-11T03:00:52.039Z,1.60
2018-05-11T03:03:18.928Z,1.60
2018-05-11T03:05:45.810Z,3.07
2018-05-11T03:08:14.109Z,2.50
2018-05-11T03:10:41.803Z,2.93
2018-05-11T03:13:09.449Z,2.37
2018-05-11T03:15:37.057Z,2.27
2018-05-11T03:18:03.931Z,2.50
2018-05-11T03:20:30.807Z,3.13
2018-05-11T03:22:58.264Z,3.80
2018-05-11T03:25:26.049Z,5.43
2018-05-11T03:27:52.948Z,3.13
2018-05-11T03:30:20.597Z,1.97
2018-05-11T03:32:47.481Z,1.43
2018-05-11T03:35:14.869Z,3.50
2018-05-11T03:37:41.823Z,1.70
2018-05-11T03:40:08.689Z,2.83
2018-05-11T03:42:35.634Z,3.53
2018-05-11T03:45:02.901Z,3.80
2018-05-11T03:47:31.299Z,4.23
2018-05-11T03:49:58.242Z,2.93
2018-05-11T03:52:25.129Z,4.57
2018-05-11T03:54:52.433Z,5.07
2018-05-11T03:57:19.314Z,3.00
2018-05-11T03:59:46.791Z,2.37
2018-05-11T04:02:27.772Z,4.10
2018-05-11T04:05:06.605Z,2.20
2018-05-11T04:10:37.338Z,6.73
2018-05-11T04:13:05.707Z,2.40
2018-05-11T04:15:32.541Z,3.00
2018-05-11T04:18:00.568Z,3.43
2018-05-11T04:20:28.190Z,3.50
2018-05-11T04:22:56.433Z,3.30
2018-05-11T04:25:24.256Z,2.37
2018-05-11T04:27:51.215Z,2.47
2018-05-11T04:30:18.235Z,1.57
2018-05-11T04:32:45.048Z,3.83
2018-05-11T04:35:12.818Z,3.70
2018-05-11T04:37:39.716Z,2.57
2018-05-11T04:40:06.660Z,1.87
2018-05-11T04:42:33.525Z,3.23
2018-05-11T04:45:00.666Z,2.97
2018-05-11T04:47:29.219Z,5.13
2018-05-11T04:49:56.205Z,4.73
2018-05-11T04:52:23.068Z,4.70
2018-05-11T04:54:52.777Z,2.33
2018-05-11T04:57:21.548Z,3.20
2018-05-11T04:59:48.420Z,1.70
2018-05-11T05:02:15.774Z,2.50
2018-05-11T05:04:42.637Z,2.70
2018-05-11T05:07:09.556Z,6.37
2018-05-11T05:09:38.012Z,5.43
2018-05-11T05:12:04.894Z,3.40
2018-05-11T05:14:32.969Z,3.60
2018-05-11T05:16:59.831Z,4.63
2018-05-11T05:19:26.772Z,4.43
2018-05-11T05:21:53.628Z,2.30
2018-05-11T05:24:21.681Z,3.87
2018-05-11T05:26:48.571Z,2.30
2018-05-11T05:29:15.448Z,3.80
2018-05-11T05:31:43.301Z,1.87
2018-05-11T05:34:10.158Z,3.87
2018-05-11T05:36:37.028Z,4.10
2018-05-11T05:39:05.286Z,7.57
2018-05-11T05:41:32.137Z,2.30
2018-05-11T05:43:59.036Z,3.20
2018-05-11T05:46:25.910Z,5.03
2018-05-11T05:48:52.778Z,4.43
2018-05-11T05:51:20.474Z,7.33
2018-05-11T05:53:47.359Z,3.23
2018-05-11T05:56:15.199Z,4.63
2018-05-11T05:58:42.520Z,6.20
2018-05-11T06:01:13.379Z,3.53
2018-05-11T06:03:40.572Z,4.03
2018-05-11T06:06:07.453Z,5.93
2018-05-11T06:08:35.084Z,3.23
2018-05-11T06:11:01.957Z,3.17
2018-05-11T06:13:28.829Z,2.37
2018-05-11T06:15:59.556Z,2.80
2018-05-11T06:18:26.432Z,2.63
2018-05-11T06:20:53.328Z,5.47
2018-05-11T06:23:20.652Z,3.07
2018-05-11T06:25:47.537Z,2.70
2018-05-11T06:28:14.437Z,5.10
2018-05-11T06:30:42.109Z,2.50
2018-05-11T06:33:10.463Z,3.33
2018-05-11T06:35:37.328Z,2.67
2018-05-11T06:38:05.057Z,3.60
2018-05-11T06:40:32.337Z,4.40
2018-05-11T06:42:59.957Z,4.33
2018-05-11T06:45:27.437Z,5.47
2018-05-11T06:47:54.312Z,4.20
2018-05-11T06:50:21.183Z,5.90
2018-05-11T06:52:48.921Z,3.40
2018-05-11T06:55:15.956Z,2.63
2018-05-11T06:57:43.589Z,2.30
2018-05-11T07:00:11.096Z,3.23
2018-05-11T07:02:37.977Z,2.70
2018-05-11T07:05:05.460Z,5.57
2018-05-11T07:07:32.349Z,3.13
2018-05-11T07:09:59.272Z,5.20
2018-05-11T07:12:26.147Z,5.03
2018-05-11T07:14:53.553Z,5.40
2018-05-11T07:17:21.654Z,3.10
2018-05-11T07:19:48.544Z,3.37
2018-05-11T07:22:16.576Z,2.27
2018-05-11T07:24:43.484Z,7.10
2018-05-11T07:27:10.381Z,2.00
2018-05-11T07:29:40.900Z,2.20
2018-05-11T07:32:07.781Z,4.00
2018-05-11T07:34:36.349Z,1.97
2018-05-11T07:37:03.298Z,2.43
2018-05-11T07:39:30.219Z,2.03
2018-05-11T07:42:00.535Z,2.67
2018-05-11T07:44:27.493Z,3.20
2018-05-11T07:46:55.682Z,5.43
2018-05-11T07:49:22.577Z,2.50
2018-05-11T07:51:49.545Z,2.80
2018-05-11T07:54:17.690Z,1.90
2018-05-11T07:56:44.636Z,4.07
2018-05-11T07:59:12.072Z,1.50
2018-05-11T08:01:39.044Z,2.60
2018-05-11T08:04:06.655Z,4.50
2018-05-11T08:06:34.269Z,4.23
2018-05-11T08:09:01.910Z,3.63
2018-05-11T08:11:28.837Z,3.53
2018-05-11T08:13:55.713Z,2.53
2018-05-11T08:16:22.584Z,2.80
2018-05-11T08:18:49.770Z,2.00
2018-05-11T08:21:16.696Z,2.53
2018-05-11T08:23:43.626Z,3.37
2018-05-11T08:26:10.506Z,3.63
2018-05-11T08:28:40.554Z,2.97
2018-05-11T08:31:08.618Z,2.60
2018-05-11T08:33:36.292Z,2.67
2018-05-11T08:36:05.849Z,2.10
2018-05-11T08:38:32.733Z,1.83
2018-05-11T08:40:59.630Z,4.17
2018-05-11T08:43:27.354Z,2.17
2018-05-11T08:45:54.254Z,2.90
2018-05-11T08:48:21.150Z,4.17
2018-05-11T08:50:48.037Z,4.13
2018-05-11T08:53:14.936Z,3.13
2018-05-11T08:55:43.097Z,2.53
2018-05-11T08:58:12.764Z,3.83
2018-05-11T09:00:39.652Z,2.70
2018-05-11T09:03:07.342Z,4.53
2018-05-11T09:05:34.341Z,5.93
2018-05-11T09:08:02.425Z,2.30
2018-05-11T09:10:30.033Z,2.93
2018-05-11T09:12:57.312Z,3.20
2018-05-11T09:15:24.205Z,3.67
2018-05-11T09:17:51.097Z,3.40
2018-05-11T09:20:20.839Z,1.40
2018-05-11T09:22:48.448Z,1.93
2018-05-11T09:25:16.500Z,1.63
2018-05-11T09:27:44.521Z,4.70
2018-05-11T09:30:11.425Z,2.97
2018-05-11T09:32:38.851Z,2.60
2018-05-11T09:35:05.730Z,3.00
2018-05-11T09:37:33.085Z,3.40
2018-05-11T09:39:59.961Z,2.13
2018-05-11T09:42:26.906Z,3.33
2018-05-11T09:44:53.832Z,4.77
2018-05-11T09:47:20.759Z,2.30
2018-05-11T09:49:47.689Z,2.97
2018-05-11T09:52:14.584Z,2.87
2018-05-11T09:54:41.467Z,2.67
2018-05-11T09:57:08.380Z,4.40
2018-05-11T09:59:35.997Z,4.37
2018-05-11T10:02:02.901Z,1.97
2018-05-11T10:04:30.812Z,7.70
2018-05-11T10:06:57.686Z,2.33
2018-05-11T10:09:25.944Z,3.13
2018-05-11T10:11:53.841Z,4.50
2018-05-11T10:14:20.756Z,3.63
2018-05-11T10:16:47.645Z,5.83
2018-05-11T10:19:14.524Z,2.33
2018-05-11T10:21:42.687Z,3.53
2018-05-11T10:24:09.565Z,2.73
2018-05-11T10:26:37.232Z,4.73
2018-05-11T10:29:04.146Z,2.03
2018-05-11T10:31:31.122Z,2.20
2018-05-11T10:33:59.128Z,3.07
2018-05-11T10:36:26.013Z,3.93
2018-05-11T10:38:52.925Z,1.50
2018-05-11T10:41:19.888Z,1.63
2018-05-11T10:43:46.766Z,3.50
2018-05-11T10:46:13.791Z,2.57
2018-05-11T10:48:41.462Z,3.40
2018-05-11T10:51:08.322Z,2.30
2018-05-11T10:53:35.386Z,5.43
2018-05-11T10:56:02.373Z,3.60
2018-05-11T10:58:30.182Z,4.83
2018-05-11T11:00:57.058Z,4.07
2018-05-11T11:03:24.997Z,2.43
2018-05-11T11:05:52.286Z,1.80
2018-05-11T11:08:19.169Z,1.60
2018-05-11T11:10:47.897Z,3.23
2018-05-11T11:13:14.782Z,2.63
2018-05-11T11:15:42.742Z,3.70
2018-05-11T11:18:10.458Z,5.67
2018-05-11T11:20:37.340Z,2.70
2018-05-11T11:23:06.585Z,3.03
2018-05-11T11:25:33.654Z,2.50
2018-05-11T11:28:01.406Z,2.60
2018-05-11T11:30:28.276Z,3.20
2018-05-11T11:32:55.952Z,3.83
2018-05-11T11:35:23.585Z,3.83
2018-05-11T11:37:51.233Z,3.37
2018-05-11T11:40:19.305Z,6.67
2018-05-11T11:42:46.173Z,4.07
2018-05-11T11:45:13.108Z,4.60
2018-05-11T11:47:41.774Z,5.00
2018-05-11T11:50:08.725Z,5.13
2018-05-11T11:52:35.616Z,2.67
2018-05-11T11:55:03.952Z,3.97
2018-05-11T11:57:30.833Z,4.03
2018-05-11T11:59:58.189Z,2.37
2018-05-11T12:02:26.258Z,4.03
2018-05-11T12:04:54.528Z,2.63
2018-05-11T12:07:22.240Z,4.80
2018-05-11T12:09:49.208Z,4.60
2018-05-11T12:12:17.386Z,2.73
2018-05-11T12:14:45.006Z,6.80
2018-05-11T12:17:12.928Z,4.27
2018-05-11T12:19:40.550Z,4.30
2018-05-11T12:22:07.430Z,3.83
2018-05-11T12:24:35.092Z,4.27
2018-05-11T12:27:02.726Z,7.47
2018-05-11T12:29:30.013Z,4.17
2018-05-11T12:31:56.973Z,4.97
2018-05-11T12:34:23.846Z,3.87
2018-05-11T12:36:51.206Z,2.77
2018-05-11T12:39:18.100Z,3.50
2018-05-11T12:41:46.689Z,2.53
2018-05-11T12:44:13.601Z,3.67
2018-05-11T12:46:42.015Z,3.00
2018-05-11T12:49:08.945Z,4.67
2018-05-11T12:51:35.817Z,5.10
2018-05-11T12:54:03.216Z,2.77
2018-05-11T12:56:30.102Z,4.37
2018-05-11T12:58:56.981Z,2.07
2018-05-11T13:01:23.956Z,4.10
2018-05-11T13:03:50.885Z,8.80
2018-05-11T13:06:18.330Z,3.47
2018-05-11T13:08:45.364Z,3.83
2018-05-11T13:11:12.269Z,4.90
2018-05-11T13:13:40.033Z,2.70
2018-05-11T13:16:07.746Z,6.03
2018-05-11T13:18:35.067Z,2.40
2018-05-11T13:21:01.950Z,2.60
2018-05-11T13:23:28.904Z,2.07
2018-05-11T13:25:56.352Z,3.23
2018-05-11T13:28:23.229Z,2.13
2018-05-11T13:30:50.893Z,5.13
2018-05-11T13:33:18.506Z,3.97
2018-05-11T13:35:45.392Z,2.30
2018-05-11T13:38:13.152Z,4.10
2018-05-11T13:40:40.043Z,2.77
2018-05-11T13:43:09.923Z,2.57
2018-05-11T13:45:37.183Z,5.27
2018-05-11T13:48:04.142Z,4.87
2018-05-11T13:50:31.859Z,4.67
2018-05-11T13:52:59.137Z,3.27
2018-05-11T13:55:26.447Z,3.90
2018-05-11T13:57:53.331Z,3.30
2018-05-11T14:00:21.370Z,2.30
2018-05-11T14:02:48.280Z,5.43
2018-05-11T14:05:15.176Z,4.80
2018-05-11T14:07:42.828Z,4.70
2018-05-11T14:10:09.745Z,4.47
2018-05-11T14:12:36.684Z,2.27
2018-05-11T14:15:04.713Z,4.30
2018-05-11T14:17:31.607Z,2.77
2018-05-11T14:19:58.541Z,3.00
2018-05-11T14:22:25.427Z,2.87
2018-05-11T14:24:53.080Z,3.57
2018-05-11T14:27:20.556Z,2.07
2018-05-11T14:29:47.503Z,4.33
2018-05-11T14:32:15.146Z,2.70
2018-05-11T14:34:42.051Z,3.80
2018-05-11T14:37:10.356Z,4.37
2018-05-11T14:39:37.273Z,3.47
2018-05-11T14:42:04.170Z,2.90
2018-05-11T14:44:33.360Z,2.93
2018-05-11T14:47:00.273Z,3.87
2018-05-11T14:49:27.140Z,2.73
2018-05-11T14:51:56.244Z,4.57
2018-05-11T14:54:23.146Z,5.20
2018-05-11T14:56:50.126Z,3.23
2018-05-11T14:59:17.001Z,4.07
2018-05-11T15:01:43.920Z,5.70
2018-05-11T15:04:11.362Z,4.60
2018-05-11T15:06:38.855Z,3.50
2018-05-11T15:09:06.256Z,2.37
2018-05-11T15:11:33.628Z,4.13
2018-05-11T15:14:02.116Z,7.13
2018-05-11T15:16:30.111Z,3.53
2018-05-11T15:18:57.811Z,3.60
2018-05-11T15:21:25.254Z,3.77
2018-05-11T15:23:52.125Z,3.43
2018-05-11T15:26:19.033Z,4.17
2018-05-11T15:28:47.286Z,3.50
2018-05-11T15:31:14.228Z,2.53
2018-05-11T15:33:41.870Z,4.87
2018-05-11T15:36:08.903Z,3.67
2018-05-11T15:38:35.847Z,3.40
2018-05-11T15:41:03.231Z,3.67
2018-05-11T15:43:30.933Z,3.60
2018-05-11T15:45:57.829Z,6.70
2018-05-11T15:48:24.720Z,3.07
2018-05-11T15:50:51.600Z,6.13
2018-05-11T15:53:18.965Z,4.93
2018-05-11T15:55:45.857Z,5.53
2018-05-11T15:58:13.084Z,2.40
2018-05-11T16:00:41.605Z,3.83
2018-05-11T16:03:08.496Z,2.20
2018-05-11T16:05:35.604Z,3.83
2018-05-11T16:08:02.533Z,3.60
2018-05-11T16:10:29.426Z,4.57
2018-05-11T16:12:57.999Z,4.23
2018-05-11T16:15:25.665Z,5.50
2018-05-11T16:17:53.744Z,6.60
2018-05-11T16:20:21.089Z,4.47
2018-05-11T16:22:48.027Z,4.67
2018-05-11T16:25:15.569Z,2.80
2018-05-11T16:27:43.033Z,2.60
2018-05-11T16:30:10.191Z,4.77
2018-05-11T16:32:37.078Z,4.10
2018-05-11T16:35:04.344Z,2.60
2018-05-11T16:37:31.256Z,3.53
2018-05-11T16:39:59.165Z,6.43
2018-05-11T16:42:27.026Z,4.57
2018-05-11T16:44:53.905Z,5.10
2018-05-11T16:47:20.784Z,6.57
2018-05-11T16:49:49.312Z,6.33
2018-05-11T16:52:16.192Z,3.87
2018-05-11T16:54:43.194Z,2.97
2018-05-11T16:57:10.681Z,4.53
2018-05-11T16:59:37.562Z,4.07
2018-05-11T17:02:10.485Z,5.10
2018-05-11T17:04:37.807Z,4.70
2018-05-11T17:07:04.708Z,3.40
2018-05-11T17:09:31.596Z,4.73
2018-05-11T17:11:59.597Z,3.60
2018-05-11T17:14:26.543Z,2.70
2018-05-11T17:16:53.417Z,3.70
2018-05-11T17:19:21.988Z,2.83
2018-05-11T17:21:48.882Z,3.20
2018-05-11T17:24:15.811Z,5.77
2018-05-11T17:26:43.603Z,7.13
2018-05-11T17:29:10.496Z,3.37
2018-05-11T17:31:38.974Z,5.43
2018-05-11T17:34:07.164Z,4.07
2018-05-11T17:36:34.045Z,3.70
2018-05-11T17:39:00.957Z,2.60
2018-05-11T17:41:28.310Z,5.43
2018-05-11T17:43:56.023Z,3.13
2018-05-11T17:46:22.908Z,4.20
2018-05-11T17:48:49.789Z,7.20
2018-05-11T17:51:16.692Z,2.80
2018-05-11T17:53:43.572Z,2.50
2018-05-11T17:56:11.197Z,5.70
2018-05-11T17:58:38.076Z,4.50
2018-05-11T18:01:04.945Z,4.93
2018-05-11T18:03:33.264Z,8.63
2018-05-11T18:06:00.145Z,6.43
2018-05-11T18:08:29.617Z,3.37
2018-05-11T18:10:57.320Z,5.57
2018-05-11T18:13:24.955Z,3.17
2018-05-11T18:15:53.821Z,4.00
2018-05-11T18:18:20.789Z,3.47
2018-05-11T18:20:47.699Z,5.03
2018-05-11T18:23:14.623Z,7.60
2018-05-11T18:25:41.513Z,6.17
2018-05-11T18:28:09.225Z,5.40
2018-05-11T18:30:36.162Z,4.07
2018-05-11T18:33:03.260Z,7.93
2018-05-11T18:35:30.140Z,5.00
2018-05-11T18:37:57.001Z,4.27
2018-05-11T18:40:24.500Z,7.10
2018-05-11T18:42:51.380Z,7.93
2018-05-11T18:45:18.324Z,9.07
2018-05-11T18:47:45.756Z,6.73
2018-05-11T18:50:12.652Z,8.50
2018-05-11T18:52:39.622Z,7.80
2018-05-11T18:55:06.890Z,8.03
2018-05-11T18:57:35.048Z,10.47
2018-05-11T19:00:01.905Z,10.00
2018-05-11T19:02:29.913Z,7.07
2018-05-11T19:04:56.815Z,12.97
2018-05-11T19:07:23.881Z,11.67
2018-05-11T19:09:55.369Z,7.07
2018-05-11T19:12:22.253Z,11.47
2018-05-11T19:14:49.121Z,11.03
2018-05-11T19:17:17.644Z,10.10
2018-05-11T19:19:44.524Z,11.27
2018-05-11T19:22:11.786Z,9.30
2018-05-11T19:24:39.841Z,11.37
2018-05-11T19:27:06.708Z,8.97
2018-05-11T19:29:34.376Z,10.97
2018-05-11T19:32:02.183Z,15.10
2018-05-11T19:34:29.961Z,9.23
2018-05-11T19:36:56.840Z,8.70
2018-05-11T19:39:26.225Z,7.90
2018-05-11T19:41:53.109Z,9.70
2018-05-11T19:44:19.979Z,8.80
2018-05-11T19:46:47.285Z,8.57
2018-05-11T19:49:15.044Z,12.23
2018-05-11T19:51:42.717Z,10.97
2018-05-11T19:54:11.016Z,8.47
2018-05-11T19:56:37.884Z,15.47
2018-05-11T19:59:05.586Z,9.00
2018-05-11T20:01:32.766Z,7.37
2018-05-11T20:03:59.657Z,9.10
2018-05-11T20:06:26.597Z,10.77
2018-05-11T20:08:54.188Z,8.53
2018-05-11T20:11:22.025Z,9.03
2018-05-11T20:13:48.904Z,9.33
2018-05-11T20:16:15.868Z,9.57
2018-05-11T20:18:43.265Z,9.47
2018-05-11T20:21:10.134Z,8.33
2018-05-11T20:23:37.897Z,8.27
2018-05-11T20:26:04.773Z,9.07
2018-05-11T20:28:31.672Z,12.33
2018-05-11T20:31:00.532Z,8.33
2018-05-11T20:33:27.446Z,9.23
2018-05-11T20:35:54.308Z,11.97
2018-05-11T20:38:21.195Z,9.47
2018-05-11T20:40:48.064Z,8.53
2018-05-11T20:43:16.337Z,11.70
2018-05-11T20:45:43.361Z,6.63
2018-05-11T20:48:10.233Z,9.10
2018-05-11T20:50:37.092Z,10.60
2018-05-11T20:53:04.042Z,10.77
2018-05-11T20:55:31.425Z,10.17
2018-05-11T20:57:58.328Z,8.13
2018-05-11T21:00:26.476Z,9.57
2018-05-11T21:02:53.336Z,13.27
2018-05-11T21:05:20.271Z,11.77
2018-05-11T21:07:48.528Z,12.17
2018-05-11T21:10:15.444Z,11.27
2018-05-11T21:12:42.361Z,10.43
2018-05-11T21:15:10.304Z,9.97
2018-05-11T21:17:38.286Z,10.97
2018-05-11T21:20:06.287Z,9.93
2018-05-11T21:22:33.593Z,7.27
2018-05-11T21:25:01.059Z,9.23
2018-05-11T21:27:28.681Z,10.27
2018-05-11T21:29:56.660Z,8.57
2018-05-11T21:32:23.639Z,10.47
2018-05-11T21:34:50.553Z,9.93
2018-05-11T21:37:17.656Z,8.47
2018-05-11T21:39:44.648Z,10.60
2018-05-11T21:42:12.456Z,11.27
2018-05-11T21:44:40.410Z,10.33
2018-05-11T21:47:08.056Z,9.23
2018-05-11T21:49:34.974Z,11.00
2018-05-11T21:52:02.515Z,12.83
2018-05-11T21:54:30.972Z,11.20
2018-05-11T21:56:57.885Z,9.20
2018-05-11T21:59:24.853Z,9.07
2018-05-11T22:01:51.832Z,14.10
2018-05-11T22:04:18.733Z,11.53
2018-05-11T22:06:48.556Z,12.00
2018-05-11T22:09:16.778Z,7.57
2018-05-11T22:11:43.682Z,9.33
2018-05-11T22:14:10.649Z,10.27
2018-05-11T22:16:38.347Z,8.07
2018-05-11T22:19:05.263Z,11.50
2018-05-11T22:21:32.819Z,13.30
2018-05-11T22:23:59.708Z,12.20
2018-05-11T22:26:26.580Z,13.50
2018-05-11T22:28:54.608Z,10.47
2018-05-11T22:31:22.156Z,9.70
2018-05-11T22:33:50.191Z,11.53
2018-05-11T22:36:17.197Z,9.30
2018-05-11T22:38:46.129Z,8.77
2018-05-11T22:41:13.838Z,12.40
2018-05-11T22:43:40.941Z,12.73
2018-05-11T22:46:08.944Z,11.30
2018-05-11T22:48:35.838Z,14.33
2018-05-11T22:51:03.572Z,12.13
2018-05-11T22:53:30.497Z,10.00
2018-05-11T22:55:58.110Z,13.00
2018-05-11T22:58:25.050Z,11.93
2018-05-11T23:00:51.971Z,13.17
2018-05-11T23:03:18.890Z,9.33
2018-05-11T23:05:46.471Z,7.90
2018-05-11T23:08:14.487Z,12.63
2018-05-11T23:10:41.813Z,10.90
2018-05-11T23:13:08.713Z,8.23
2018-05-11T23:15:35.576Z,16.97
2018-05-11T23:18:02.502Z,10.80
2018-05-11T23:20:30.652Z,9.57
2018-05-11T23:22:57.584Z,9.67
2018-05-11T23:25:24.468Z,12.53
2018-05-11T23:27:52.463Z,9.03
2018-05-11T23:30:19.376Z,10.33
2018-05-11T23:32:46.626Z,8.33
2018-05-11T23:35:15.436Z,13.30
2018-05-11T23:37:42.365Z,9.33
2018-05-11T23:40:09.275Z,7.57
2018-05-11T23:42:36.157Z,11.90
2018-05-11T23:45:04.058Z,9.47
2018-05-11T23:47:31.453Z,7.53
2018-05-11T23:49:58.419Z,9.70
2018-05-11T23:52:25.320Z,12.27
2018-05-11T23:54:52.215Z,11.80
2018-05-11T23:57:19.681Z,9.97
2018-05-11T23:59:46.601Z,10.47
